createdAt,value
2018-05-11T00:00:07.891Z,98721.30
2018-05-11T00:02:34.384Z,98717.58
2018-05-11T00:05:01.656Z,98713.30
2018-05-11T00:07:28.791Z,98713.47
2018-05-11T00:09:56.907Z,98712.59
2018-05-11T00:12:23.489Z,98716.75
2018-05-11T00:14:49.903Z,98712.70
2018-05-11T00:17:16.298Z,98707.66
2018-05-11T00:19:42.679Z,98711.08
2018-05-11T00:22:09.068Z,98709.12
2018-05-11T00:24:35.530Z,98705.81
2018-05-11T00:27:02.062Z,98709.65
2018-05-11T00:29:28.769Z,98706.69
2018-05-11T00:31:55.173Z,98712.16
2018-05-11T00:34:22.385Z,98712.95
2018-05-11T00:36:48.810Z,98710.36
2018-05-11T00:39:15.323Z,98711.79
2018-05-11T00:41:41.802Z,98709.86
2018-05-11T00:44:08.339Z,98717.17
2018-05-11T00:46:34.741Z,98718.72
2018-05-11T00:49:01.162Z,98715.41
2018-05-11T00:51:27.631Z,98718.39
2018-05-11T00:53:54.037Z,98724.42
2018-05-11T00:56:20.423Z,98722.77
2018-05-11T00:58:47.020Z,98727.08
2018-05-11T01:01:13.397Z,98724.50
2018-05-11T01:03:40.685Z,98727.72
2018-05-11T01:06:07.938Z,98725.02
2018-05-11T01:08:34.443Z,98723.98
2018-05-11T01:11:01.686Z,98725.52
2018-05-11T01:13:28.293Z,98725.47
2018-05-11T01:15:54.717Z,98721.89
2018-05-11T01:18:21.281Z,98721.92
2018-05-11T01:20:47.643Z,98718.42
2018-05-11T01:23:14.829Z,98721.03
2018-05-11T01:25:41.454Z,98718.20
2018-05-11T01:28:08.189Z,98719.99
2018-05-11T01:30:34.935Z,98718.88
2018-05-11T01:33:01.402Z,98722.60
2018-05-11T01:35:27.914Z,98722.30
2018-05-11T01:37:54.342Z,98720.36
2018-05-11T01:40:21.062Z,98721.36
2018-05-11T01:42:47.449Z,98719.45
2018-05-11T01:45:13.989Z,98725.34
2018-05-11T01:47:40.389Z,98722.06
2018-05-11T01:50:06.810Z,98724.75
2018-05-11T01:52:33.258Z,98726.88
2018-05-11T01:54:59.734Z,98731.16
2018-05-11T01:57:26.885Z,98729.84
2018-05-11T01:59:54.095Z,98735.23
2018-05-11T02:02:20.472Z,98740.22
2018-05-11T02:04:47.737Z,98740.73
2018-05-11T02:07:14.963Z,98742.09
2018-05-11T02:09:41.393Z,98736.68
2018-05-11T02:12:07.798Z,98740.63
2018-05-11T02:14:34.200Z,98742.55
2018-05-11T02:17:00.620Z,98736.20
2018-05-11T02:19:27.773Z,98734.81
2018-05-11T02:21:54.207Z,98737.56
2018-05-11T02:24:20.638Z,98732.23
2018-05-11T02:26:47.903Z,98735.60
2018-05-11T02:29:14.398Z,98731.61
2018-05-11T02:31:40.811Z,98729.25
2018-05-11T02:34:07.242Z,98726.70
2018-05-11T02:36:33.716Z,98727.69
2018-05-11T02:39:00.667Z,98727.91
2018-05-11T02:41:27.174Z,98718.50
2018-05-11T02:43:53.749Z,98725.16
2018-05-11T02:46:20.245Z,98719.84
2018-05-11T02:48:46.721Z,98721.02
2018-05-11T02:51:13.172Z,98726.24
2018-05-11T02:53:39.617Z,98729.94
2018-05-11T02:56:06.829Z,98728.73
2018-05-11T02:58:33.250Z,98731.73
2018-05-11T03:01:00.381Z,98725.75
2018-05-11T03:03:26.848Z,98730.02
2018-05-11T03:05:53.267Z,98727.20
2018-05-11T03:08:20.449Z,98726.20
2018-05-11T03:10:46.887Z,98725.90
2018-05-11T03:13:13.325Z,98724.87
2018-05-11T03:15:39.847Z,98726.57
2018-05-11T03:18:06.362Z,98733.42
2018-05-11T03:20:32.830Z,98738.48
2018-05-11T03:22:59.337Z,98744.25
2018-05-11T03:25:25.792Z,98738.67
2018-05-11T03:27:52.229Z,98740.98
2018-05-11T03:30:18.786Z,98744.48
2018-05-11T03:32:46.740Z,98740.52
2018-05-11T03:35:13.187Z,98744.52
2018-05-11T03:37:39.690Z,98754.12
2018-05-11T03:40:06.123Z,98748.14
2018-05-11T03:42:32.621Z,98748.95
2018-05-11T03:44:59.807Z,98747.41
2018-05-11T03:47:26.236Z,98751.44
2018-05-11T03:49:52.680Z,98757.14
2018-05-11T03:52:19.146Z,98757.22
2018-05-11T03:54:45.561Z,98749.80
2018-05-11T03:57:11.992Z,98752.42
2018-05-11T03:59:38.431Z,98748.94
2018-05-11T04:02:23.542Z,98752.17
2018-05-11T04:05:09.065Z,98754.22
2018-05-11T04:07:54.766Z,98748.91
2018-05-11T04:10:21.291Z,98748.70
2018-05-11T04:12:47.726Z,98746.97
2018-05-11T04:15:14.117Z,98751.37
2018-05-11T04:17:41.310Z,98751.02
2018-05-11T04:20:08.005Z,98753.70
2018-05-11T04:22:35.140Z,98755.87
2018-05-11T04:25:02.349Z,98749.31
2018-05-11T04:27:28.779Z,98753.17
2018-05-11T04:29:56.071Z,98751.55
2018-05-11T04:32:24.005Z,98751.59
2018-05-11T04:34:51.130Z,98758.28
2018-05-11T04:37:17.933Z,98766.34
2018-05-11T04:39:44.722Z,98766.16
2018-05-11T04:42:11.182Z,98767.82
2018-05-11T04:44:38.367Z,98767.07
2018-05-11T04:47:05.531Z,98767.19
2018-05-11T04:49:32.021Z,98768.84
2018-05-11T04:51:58.534Z,98765.86
2018-05-11T04:54:24.981Z,98766.41
2018-05-11T04:56:51.474Z,98759.70
2018-05-11T04:59:25.223Z,98760.73
2018-05-11T05:01:51.654Z,98762.36
2018-05-11T05:04:18.163Z,98759.09
2018-05-11T05:06:44.601Z,98759.52
2018-05-11T05:09:11.032Z,98753.38
2018-05-11T05:11:37.515Z,98751.80
2018-05-11T05:14:04.726Z,98754.18
2018-05-11T05:16:31.169Z,98754.34
2018-05-11T05:18:57.959Z,98751.79
2018-05-11T05:21:25.210Z,98748.23
2018-05-11T05:23:53.561Z,98742.69
2018-05-11T05:26:20.085Z,98746.03
2018-05-11T05:28:46.499Z,98755.55
2018-05-11T05:31:12.954Z,98749.51
2018-05-11T05:33:39.469Z,98742.02
2018-05-11T05:36:06.407Z,98736.61
2018-05-11T05:38:33.090Z,98734.97
2018-05-11T05:41:00.236Z,98734.45
2018-05-11T05:43:26.699Z,98731.54
2018-05-11T05:45:53.959Z,98734.14
2018-05-11T05:48:21.133Z,98734.02
2018-05-11T05:50:47.531Z,98735.90
2018-05-11T05:53:14.742Z,98737.97
2018-05-11T05:55:41.296Z,98741.28
2018-05-11T05:58:08.478Z,98732.91
2018-05-11T06:00:34.961Z,98731.44
2018-05-11T06:03:01.400Z,98734.92
2018-05-11T06:05:27.899Z,98742.71
2018-05-11T06:07:54.280Z,98742.12
2018-05-11T06:10:21.432Z,98739.88
2018-05-11T06:12:48.642Z,98742.86
2018-05-11T06:15:15.035Z,98743.49
2018-05-11T06:17:42.553Z,98741.15
2018-05-11T06:20:08.937Z,98737.23
2018-05-11T06:22:35.772Z,98739.99
2018-05-11T06:25:02.169Z,98742.11
2018-05-11T06:27:28.647Z,98744.94
2018-05-11T06:29:55.044Z,98748.86
2018-05-11T06:32:21.805Z,98742.83
2018-05-11T06:34:48.187Z,98743.25
2018-05-11T06:37:14.913Z,98742.05
2018-05-11T06:39:41.617Z,98740.55
2018-05-11T06:42:08.911Z,98736.59
2018-05-11T06:44:36.095Z,98741.55
2018-05-11T06:47:02.613Z,98750.22
2018-05-11T06:49:29.398Z,98744.84
2018-05-11T06:51:55.999Z,98750.25
2018-05-11T06:54:22.534Z,98741.58
2018-05-11T06:56:49.771Z,98734.92
2018-05-11T06:59:16.359Z,98733.11
2018-05-11T07:01:42.860Z,98726.45
2018-05-11T07:04:09.304Z,98724.84
2018-05-11T07:06:36.446Z,98723.08
2018-05-11T07:09:03.599Z,98716.52
2018-05-11T07:11:31.288Z,98717.66
2018-05-11T07:13:58.459Z,98712.77
2018-05-11T07:16:24.967Z,98710.33
2018-05-11T07:18:52.262Z,98711.14
2018-05-11T07:21:18.957Z,98705.56
2018-05-11T07:23:45.433Z,98703.95
2018-05-11T07:26:12.650Z,98705.28
2018-05-11T07:28:39.088Z,98701.97
2018-05-11T07:31:05.611Z,98707.16
2018-05-11T07:33:32.839Z,98709.25
2018-05-11T07:36:00.818Z,98707.59
2018-05-11T07:38:28.096Z,98709.18
2018-05-11T07:40:54.535Z,98707.41
2018-05-11T07:43:21.107Z,98703.73
2018-05-11T07:45:48.214Z,98705.04
2018-05-11T07:48:14.714Z,98706.73
2018-05-11T07:50:41.972Z,98703.23
2018-05-11T07:53:09.117Z,98703.33
2018-05-11T07:55:35.682Z,98698.34
2018-05-11T07:58:03.141Z,98696.48
2018-05-11T08:00:30.360Z,98696.06
2018-05-11T08:02:57.631Z,98693.73
2018-05-11T08:05:24.298Z,98693.11
2018-05-11T08:07:50.832Z,98691.02
2018-05-11T08:10:17.392Z,98688.50
2018-05-11T08:12:44.104Z,98686.03
2018-05-11T08:15:10.586Z,98686.36
2018-05-11T08:17:37.072Z,98692.15
2018-05-11T08:20:03.526Z,98685.22
2018-05-11T08:22:30.081Z,98686.82
2018-05-11T08:24:56.624Z,98683.42
2018-05-11T08:27:23.415Z,98682.89
2018-05-11T08:29:51.388Z,98683.36
2018-05-11T08:32:18.449Z,98683.53
2018-05-11T08:34:45.127Z,98695.79
2018-05-11T08:37:12.450Z,98687.83
2018-05-11T08:39:39.746Z,98683.06
2018-05-11T08:42:06.227Z,98683.67
2018-05-11T08:44:32.973Z,98677.17
2018-05-11T08:47:00.024Z,98678.77
2018-05-11T08:49:26.718Z,98672.28
2018-05-11T08:51:54.243Z,98670.04
2018-05-11T08:54:21.133Z,98665.69
2018-05-11T08:56:47.652Z,98660.70
2018-05-11T08:59:14.390Z,98662.94
2018-05-11T09:01:41.150Z,98660.58
2018-05-11T09:04:07.961Z,98663.06
2018-05-11T09:06:35.100Z,98657.55
2018-05-11T09:09:01.560Z,98659.87
2018-05-11T09:11:29.043Z,98656.72
2018-05-11T09:13:56.715Z,98652.06
2018-05-11T09:16:24.518Z,98657.55
2018-05-11T09:18:51.111Z,98660.23
2018-05-11T09:21:17.598Z,98656.47
2018-05-11T09:23:45.301Z,98650.24
2018-05-11T09:26:12.835Z,98645.03
2018-05-11T09:28:39.405Z,98649.28
2018-05-11T09:31:06.353Z,98645.52
2018-05-11T09:33:32.750Z,98645.00
2018-05-11T09:36:00.538Z,98641.14
2018-05-11T09:38:27.209Z,98643.45
2018-05-11T09:40:53.698Z,98645.48
2018-05-11T09:43:20.164Z,98639.70
2018-05-11T09:45:46.548Z,98643.12
2018-05-11T09:48:13.664Z,98635.53
2018-05-11T09:50:40.222Z,98641.66
2018-05-11T09:53:08.189Z,98635.53
2018-05-11T09:55:35.428Z,98632.44
2018-05-11T09:58:01.797Z,98631.88
2018-05-11T10:00:28.418Z,98627.61
2018-05-11T10:02:54.914Z,98629.08
2018-05-11T10:05:21.355Z,98623.66
2018-05-11T10:07:47.986Z,98621.63
2018-05-11T10:10:14.691Z,98620.25
2018-05-11T10:12:41.159Z,98621.91
2018-05-11T10:15:07.614Z,98618.55
2018-05-11T10:17:34.114Z,98618.23
2018-05-11T10:20:00.516Z,98609.87
2018-05-11T10:22:28.271Z,98616.64
2018-05-11T10:24:55.434Z,98607.89
2018-05-11T10:27:22.177Z,98608.32
2018-05-11T10:29:48.697Z,98607.66
2018-05-11T10:32:16.173Z,98600.05
2018-05-11T10:34:42.617Z,98600.34
2018-05-11T10:37:09.226Z,98605.02
2018-05-11T10:39:36.432Z,98609.55
2018-05-11T10:42:02.862Z,98605.42
2018-05-11T10:44:29.357Z,98601.00
2018-05-11T10:46:55.789Z,98596.05
2018-05-11T10:49:22.392Z,98596.95
2018-05-11T10:51:49.682Z,98595.78
2018-05-11T10:54:16.169Z,98595.42
2018-05-11T10:56:42.571Z,98600.80
2018-05-11T10:59:09.114Z,98594.40
2018-05-11T11:01:35.632Z,98598.14
2018-05-11T11:04:02.099Z,98589.67
2018-05-11T11:06:28.540Z,98592.13
2018-05-11T11:08:54.981Z,98590.31
2018-05-11T11:11:21.453Z,98586.70
2018-05-11T11:13:48.200Z,98585.62
2018-05-11T11:16:14.709Z,98588.23
2018-05-11T11:18:42.021Z,98580.58
2018-05-11T11:21:08.460Z,98566.55
2018-05-11T11:23:34.897Z,98563.43
2018-05-11T11:26:01.965Z,98556.53
2018-05-11T11:28:28.409Z,98552.48
2018-05-11T11:30:56.671Z,98546.57
2018-05-11T11:33:23.822Z,98545.55
2018-05-11T11:35:51.155Z,98544.11
2018-05-11T11:38:17.652Z,98539.08
2018-05-11T11:40:44.115Z,98544.27
2018-05-11T11:43:10.642Z,98540.36
2018-05-11T11:45:37.110Z,98534.89
2018-05-11T11:48:03.722Z,98530.45
2018-05-11T11:50:30.255Z,98526.61
2018-05-11T11:52:56.662Z,98528.87
2018-05-11T11:55:23.051Z,98526.64
2018-05-11T11:57:49.595Z,98522.41
2018-05-11T12:00:16.872Z,98520.20
2018-05-11T12:02:43.348Z,98513.16
2018-05-11T12:05:10.155Z,98514.05
2018-05-11T12:07:36.587Z,98511.81
2018-05-11T12:10:03.035Z,98509.77
2018-05-11T12:12:29.748Z,98512.52
2018-05-11T12:14:56.163Z,98511.09
2018-05-11T12:17:24.206Z,98505.45
2018-05-11T12:19:50.935Z,98511.45
2018-05-11T12:22:17.352Z,98506.01
2018-05-11T12:24:43.788Z,98499.67
2018-05-11T12:27:10.290Z,98499.97
2018-05-11T12:29:37.333Z,98494.03
2018-05-11T12:32:06.129Z,98499.31
2018-05-11T12:34:32.829Z,98495.47
2018-05-11T12:36:59.332Z,98493.83
2018-05-11T12:39:25.863Z,98491.45
2018-05-11T12:41:52.296Z,98490.08
2018-05-11T12:44:18.756Z,98492.63
2018-05-11T12:46:45.221Z,98484.67
2018-05-11T12:49:12.390Z,98483.89
2018-05-11T12:51:40.153Z,98484.34
2018-05-11T12:54:06.642Z,98481.69
2018-05-11T12:56:33.090Z,98471.48
2018-05-11T12:59:00.491Z,98470.11
2018-05-11T13:01:26.968Z,98471.41
2018-05-11T13:03:53.507Z,98471.02
2018-05-11T13:06:20.214Z,98463.40
2018-05-11T13:08:47.159Z,98463.81
2018-05-11T13:11:13.881Z,98464.61
2018-05-11T13:13:40.942Z,98458.88
2018-05-11T13:16:07.480Z,98454.95
2018-05-11T13:18:34.334Z,98459.98
2018-05-11T13:21:01.729Z,98448.85
2018-05-11T13:23:28.941Z,98449.35
2018-05-11T13:25:55.385Z,98443.55
2018-05-11T13:28:22.226Z,98438.39
2018-05-11T13:30:48.874Z,98435.35
2018-05-11T13:33:15.298Z,98434.73
2018-05-11T13:35:42.601Z,98438.92
2018-05-11T13:38:09.100Z,98438.91
2018-05-11T13:40:36.420Z,98439.69
2018-05-11T13:43:03.270Z,98425.54
2018-05-11T13:45:29.753Z,98432.84
2018-05-11T13:47:56.140Z,98425.42
2018-05-11T13:50:22.607Z,98425.53
2018-05-11T13:52:49.759Z,98425.36
2018-05-11T13:55:17.120Z,98427.31
2018-05-11T13:57:44.769Z,98425.20
2018-05-11T14:00:12.196Z,98425.53
2018-05-11T14:02:38.653Z,98425.92
2018-05-11T14:05:05.998Z,98423.73
2018-05-11T14:07:32.419Z,98418.03
2018-05-11T14:09:59.740Z,98422.36
2018-05-11T14:12:26.414Z,98421.23
2018-05-11T14:14:52.832Z,98411.09
2018-05-11T14:17:19.529Z,98417.70
2018-05-11T14:19:46.874Z,98409.98
2018-05-11T14:22:14.061Z,98407.08
2018-05-11T14:24:40.575Z,98402.39
2018-05-11T14:27:07.058Z,98399.13
2018-05-11T14:29:34.753Z,98399.64
2018-05-11T14:32:01.994Z,98404.47
2018-05-11T14:34:28.305Z,98404.29
2018-05-11T14:36:54.728Z,98399.66
2018-05-11T14:39:21.300Z,98397.80
2018-05-11T14:41:47.824Z,98397.52
2018-05-11T14:44:15.022Z,98391.00
2018-05-11T14:46:42.233Z,98386.86
2018-05-11T14:49:09.704Z,98395.22
2018-05-11T14:51:36.821Z,98394.66
2018-05-11T14:54:03.269Z,98388.88
2018-05-11T14:56:29.801Z,98391.36
2018-05-11T14:58:56.631Z,98386.67
2018-05-11T15:01:23.140Z,98384.30
2018-05-11T15:03:49.841Z,98379.41
2018-05-11T15:06:16.977Z,98381.64
2018-05-11T15:08:44.260Z,98376.57
2018-05-11T15:11:10.985Z,98377.47
2018-05-11T15:13:37.651Z,98378.63
2018-05-11T15:16:04.170Z,98376.42
2018-05-11T15:18:30.641Z,98370.16
2018-05-11T15:20:57.092Z,98375.88
2018-05-11T15:23:23.773Z,98365.50
2018-05-11T15:25:51.091Z,98365.73
2018-05-11T15:28:17.699Z,98363.70
2018-05-11T15:30:44.429Z,98361.66
2018-05-11T15:33:11.040Z,98358.25
2018-05-11T15:35:37.439Z,98351.77
2018-05-11T15:38:04.578Z,98350.61
2018-05-11T15:40:31.112Z,98341.25
2018-05-11T15:42:57.692Z,98347.08
2018-05-11T15:45:24.859Z,98346.69
2018-05-11T15:47:51.486Z,98343.47
2018-05-11T15:50:17.917Z,98343.38
2018-05-11T15:52:44.380Z,98338.91
2018-05-11T15:55:11.096Z,98341.48
2018-05-11T15:57:38.304Z,98339.22
2018-05-11T16:00:05.508Z,98334.13
2018-05-11T16:02:32.221Z,98335.34
2018-05-11T16:04:58.858Z,98331.84
2018-05-11T16:07:26.022Z,98332.20
2018-05-11T16:09:52.798Z,98332.02
2018-05-11T16:12:20.972Z,98335.95
2018-05-11T16:14:47.522Z,98331.36
2018-05-11T16:17:13.936Z,98330.35
2018-05-11T16:19:40.540Z,98329.79
2018-05-11T16:22:07.290Z,98327.54
2018-05-11T16:24:33.850Z,98329.08
2018-05-11T16:27:00.567Z,98329.77
2018-05-11T16:29:29.368Z,98326.84
2018-05-11T16:31:56.144Z,98329.64
2018-05-11T16:34:23.567Z,98324.73
2018-05-11T16:36:50.207Z,98326.12
2018-05-11T16:39:18.674Z,98325.41
2018-05-11T16:41:45.388Z,98329.75
2018-05-11T16:44:13.054Z,98325.55
2018-05-11T16:46:39.525Z,98326.28
2018-05-11T16:49:06.183Z,98326.55
2018-05-11T16:51:32.886Z,98324.88
2018-05-11T16:53:59.589Z,98327.03
2018-05-11T16:56:27.002Z,98326.65
2018-05-11T16:58:53.965Z,98327.30
2018-05-11T17:01:20.924Z,98325.13
2018-05-11T17:03:48.074Z,98329.80
2018-05-11T17:06:15.567Z,98321.25
2018-05-11T17:08:42.048Z,98330.41
2018-05-11T17:11:08.531Z,98325.10
2018-05-11T17:13:35.261Z,98332.89
2018-05-11T17:16:02.447Z,98329.36
2018-05-11T17:18:28.953Z,98328.86
2018-05-11T17:20:56.128Z,98328.19
2018-05-11T17:23:22.533Z,98330.42
2018-05-11T17:25:49.003Z,98327.95
2018-05-11T17:28:15.391Z,98333.57
2018-05-11T17:30:42.617Z,98338.97
2018-05-11T17:33:09.290Z,98336.82
2018-05-11T17:35:36.528Z,98339.99
2018-05-11T17:38:03.841Z,98332.30
2018-05-11T17:40:30.271Z,98339.08
2018-05-11T17:42:56.722Z,98334.56
2018-05-11T17:45:23.183Z,98336.52
2018-05-11T17:47:50.598Z,98329.18
2018-05-11T17:50:17.144Z,98328.97
2018-05-11T17:52:44.300Z,98336.28
2018-05-11T17:55:10.777Z,98335.17
2018-05-11T17:57:37.210Z,98333.16
2018-05-11T18:00:03.678Z,98338.31
2018-05-11T18:02:30.104Z,98335.72
2018-05-11T18:04:56.498Z,98343.98
2018-05-11T18:07:23.654Z,98344.80
2018-05-11T18:09:50.809Z,98345.73
2018-05-11T18:12:17.215Z,98344.91
2018-05-11T18:14:44.452Z,98347.42
2018-05-11T18:17:10.824Z,98343.16
2018-05-11T18:19:37.302Z,98341.66
2018-05-11T18:22:03.781Z,98340.18
2018-05-11T18:24:30.179Z,98341.66
2018-05-11T18:26:56.579Z,98340.66
2018-05-11T18:29:22.981Z,98335.12
2018-05-11T18:31:49.423Z,98339.47
2018-05-11T18:34:15.965Z,98338.17
2018-05-11T18:36:44.609Z,98338.53
2018-05-11T18:39:11.125Z,98335.53
2018-05-11T18:41:37.536Z,98340.37
2018-05-11T18:44:04.083Z,98344.76
2018-05-11T18:46:31.586Z,98336.44
2018-05-11T18:48:58.741Z,98339.69
2018-05-11T18:51:25.767Z,98343.82
2018-05-11T18:53:57.235Z,98342.78
2018-05-11T18:56:24.715Z,98342.88
2018-05-11T18:58:51.091Z,98344.86
2018-05-11T19:01:18.265Z,98341.00
2018-05-11T19:03:44.800Z,98341.22
2018-05-11T19:06:11.185Z,98347.68
2018-05-11T19:08:37.655Z,98351.20
2018-05-11T19:11:04.319Z,98359.20
2018-05-11T19:13:31.161Z,98363.53
2018-05-11T19:15:57.577Z,98365.17
2018-05-11T19:18:24.833Z,98377.17
2018-05-11T19:20:51.963Z,98368.09
2018-05-11T19:23:18.686Z,98383.52
2018-05-11T19:25:45.156Z,98384.02
2018-05-11T19:28:12.580Z,98385.91
2018-05-11T19:30:39.051Z,98386.14
2018-05-11T19:33:06.887Z,98384.66
2018-05-11T19:35:33.487Z,98392.91
2018-05-11T19:38:00.068Z,98391.93
2018-05-11T19:40:26.662Z,98391.44
2018-05-11T19:42:53.041Z,98394.84
2018-05-11T19:45:19.389Z,98397.59
2018-05-11T19:47:46.665Z,98398.39
2018-05-11T19:50:13.130Z,98402.79
2018-05-11T19:52:39.630Z,98403.28
2018-05-11T19:55:06.884Z,98407.86
2018-05-11T19:57:34.567Z,98407.96
2018-05-11T20:00:01.112Z,98405.06
2018-05-11T20:02:27.651Z,98408.61
2018-05-11T20:04:54.071Z,98408.52
2018-05-11T20:07:20.586Z,98405.77
2018-05-11T20:09:47.545Z,98405.20
2018-05-11T20:12:13.976Z,98405.98
2018-05-11T20:14:40.477Z,98399.25
2018-05-11T20:17:07.669Z,98392.69
2018-05-11T20:19:34.078Z,98399.20
2018-05-11T20:22:00.562Z,98402.04
2018-05-11T20:24:26.998Z,98406.13
2018-05-11T20:26:54.210Z,98400.04
2018-05-11T20:29:20.722Z,98397.70
2018-05-11T20:31:47.874Z,98399.48
2018-05-11T20:34:14.413Z,98398.80
2018-05-11T20:36:40.931Z,98402.69
2018-05-11T20:39:08.130Z,98400.94
2018-05-11T20:41:36.259Z,98404.09
2018-05-11T20:44:02.734Z,98413.61
2018-05-11T20:46:29.274Z,98409.36
2018-05-11T20:48:55.714Z,98411.64
2018-05-11T20:51:22.193Z,98414.80
2018-05-11T20:53:49.422Z,98416.86
2018-05-11T20:56:16.001Z,98413.60
2018-05-11T20:58:42.574Z,98417.45
2018-05-11T21:01:09.857Z,98416.42
2018-05-11T21:03:37.350Z,98423.04
2018-05-11T21:06:03.829Z,98421.59
2018-05-11T21:08:30.324Z,98423.89
2018-05-11T21:10:56.814Z,98420.85
2018-05-11T21:13:24.672Z,98425.92
2018-05-11T21:15:52.105Z,98426.22
2018-05-11T21:18:18.616Z,98423.10
2018-05-11T21:20:45.180Z,98420.08
2018-05-11T21:23:12.209Z,98421.14
2018-05-11T21:25:38.710Z,98420.44
2018-05-11T21:28:05.294Z,98419.98
2018-05-11T21:30:31.809Z,98423.38
2018-05-11T21:32:58.408Z,98422.45
2018-05-11T21:35:25.622Z,98417.97
2018-05-11T21:37:52.182Z,98417.91
2018-05-11T21:40:18.819Z,98421.39
2018-05-11T21:42:46.040Z,98421.86
2018-05-11T21:45:12.522Z,98415.47
2018-05-11T21:47:39.274Z,98414.88
2018-05-11T21:50:05.815Z,98412.67
2018-05-11T21:52:32.412Z,98415.11
2018-05-11T21:54:59.161Z,98415.23
2018-05-11T21:57:26.585Z,98419.47
2018-05-11T21:59:53.050Z,98420.64
2018-05-11T22:02:20.204Z,98423.33
2018-05-11T22:04:47.504Z,98417.70
2018-05-11T22:07:13.976Z,98422.09
2018-05-11T22:09:41.199Z,98424.47
2018-05-11T22:12:07.618Z,98415.92
2018-05-11T22:14:34.030Z,98415.73
2018-05-11T22:17:00.551Z,98415.35
2018-05-11T22:19:27.670Z,98420.04
2018-05-11T22:21:54.142Z,98418.02
2018-05-11T22:24:20.529Z,98416.46
2018-05-11T22:26:46.920Z,98418.87
2018-05-11T22:29:13.483Z,98421.40
2018-05-11T22:31:39.939Z,98414.38
2018-05-11T22:34:06.389Z,98419.38
2018-05-11T22:36:33.527Z,98416.73
2018-05-11T22:39:00.104Z,98412.96
2018-05-11T22:41:26.588Z,98418.78
2018-05-11T22:43:53.132Z,98415.37
2018-05-11T22:46:20.362Z,98416.44
2018-05-11T22:48:47.269Z,98417.88
2018-05-11T22:51:13.691Z,98419.12
2018-05-11T22:53:40.877Z,98412.69
2018-05-11T22:56:07.407Z,98415.10
2018-05-11T22:58:33.842Z,98417.21
2018-05-11T23:01:00.636Z,98414.14
2018-05-11T23:03:28.250Z,98411.33
2018-05-11T23:05:54.715Z,98413.80
2018-05-11T23:08:21.935Z,98410.58
2018-05-11T23:10:48.647Z,98410.38
2018-05-11T23:13:15.938Z,98406.98
2018-05-11T23:15:42.464Z,98409.50
2018-05-11T23:18:08.922Z,98400.74
2018-05-11T23:20:35.600Z,98401.81
2018-05-11T23:23:02.014Z,98402.97
2018-05-11T23:25:29.197Z,98402.56
2018-05-11T23:27:55.650Z,98403.37
2018-05-11T23:30:22.363Z,98401.99
2018-05-11T23:32:48.867Z,98406.91
2018-05-11T23:35:16.000Z,98405.25
2018-05-11T23:37:43.881Z,98397.92
2018-05-11T23:40:11.037Z,98397.11
2018-05-11T23:42:38.411Z,98400.17
2018-05-11T23:45:04.819Z,98405.59
2018-05-11T23:47:31.249Z,98399.86
2018-05-11T23:49:57.721Z,98401.09
2018-05-11T23:52:24.627Z,98409.39
2018-05-11T23:54:52.095Z,98405.92
2018-05-11T23:57:18.759Z,98401.67
2018-05-11T23:59:45.474Z,98404.77
